Terminal Aerodrome Forecast
Issued by NWS

Current Version | Previous Version | Text Only | Print | Product List | Glossary On
Versions: 1 2 3 4 5 6 7 8 9 10 11 12 13 14 15 16
000
FTUS46 KLOX 112300
TAFWJF
TAF
KWJF 112329Z 1200/1224 23018G25KT P6SM SKC
     FM120400 23014KT P6SM SKC
     FM120800 24007KT P6SM SKC
     FM121400 VRB03KT P6SM SKC
     FM122200 24015KT P6SM SKC=

USA.gov is the U.S. government's official web portal to all federal, state and local government web resources and services.